sensor_id;sensor_type;location;lat;lon;timestamp;P1;durP1;ratioP1;P2;durP2;ratioP2
59336;SDS011;45115;52.002;4.686;2023-02-12T00:02:17;18.73;;;9.50;;
59336;SDS011;45115;52.002;4.686;2023-02-12T00:04:43;16.58;;;8.77;;
59336;SDS011;45115;52.002;4.686;2023-02-12T00:07:10;15.90;;;8.52;;
59336;SDS011;45115;52.002;4.686;2023-02-12T00:09:36;16.15;;;8.32;;
59336;SDS011;45115;52.002;4.686;2023-02-12T00:12:04;18.55;;;9.80;;
59336;SDS011;45115;52.002;4.686;2023-02-12T00:14:31;16.75;;;8.95;;
59336;SDS011;45115;52.002;4.686;2023-02-12T00:16:58;18.45;;;9.93;;
59336;SDS011;45115;52.002;4.686;2023-02-12T00:19:25;19.27;;;9.07;;
59336;SDS011;45115;52.002;4.686;2023-02-12T00:21:52;16.77;;;9.45;;
59336;SDS011;45115;52.002;4.686;2023-02-12T00:24:18;19.65;;;9.48;;
59336;SDS011;45115;52.002;4.686;2023-02-12T00:26:45;18.88;;;9.98;;
59336;SDS011;45115;52.002;4.686;2023-02-12T00:29:14;19.15;;;9.20;;
59336;SDS011;45115;52.002;4.686;2023-02-12T00:31:41;18.20;;;9.20;;
59336;SDS011;45115;52.002;4.686;2023-02-12T00:34:08;17.10;;;9.57;;
59336;SDS011;45115;52.002;4.686;2023-02-12T00:36:35;19.02;;;9.70;;
59336;SDS011;45115;52.002;4.686;2023-02-12T00:39:02;18.67;;;9.57;;
59336;SDS011;45115;52.002;4.686;2023-02-12T00:41:28;18.85;;;9.68;;
59336;SDS011;45115;52.002;4.686;2023-02-12T00:43:55;20.98;;;10.10;;
59336;SDS011;45115;52.002;4.686;2023-02-12T00:46:23;16.75;;;9.23;;
59336;SDS011;45115;52.002;4.686;2023-02-12T00:48:49;19.52;;;9.60;;
59336;SDS011;45115;52.002;4.686;2023-02-12T00:51:18;17.73;;;9.73;;
59336;SDS011;45115;52.002;4.686;2023-02-12T00:53:45;19.45;;;9.90;;
59336;SDS011;45115;52.002;4.686;2023-02-12T00:56:11;19.33;;;9.85;;
59336;SDS011;45115;52.002;4.686;2023-02-12T00:58:38;19.83;;;9.63;;
59336;SDS011;45115;52.002;4.686;2023-02-12T01:01:05;22.48;;;11.35;;
59336;SDS011;45115;52.002;4.686;2023-02-12T01:03:35;25.77;;;12.90;;
59336;SDS011;45115;52.002;4.686;2023-02-12T01:06:02;24.65;;;12.60;;
59336;SDS011;45115;52.002;4.686;2023-02-12T01:08:30;25.02;;;12.98;;
59336;SDS011;45115;52.002;4.686;2023-02-12T01:10:57;21.98;;;12.05;;
59336;SDS011;45115;52.002;4.686;2023-02-12T01:13:24;20.25;;;11.27;;
59336;SDS011;45115;52.002;4.686;2023-02-12T01:15:59;21.88;;;11.38;;
59336;SDS011;45115;52.002;4.686;2023-02-12T01:18:26;22.85;;;12.68;;
59336;SDS011;45115;52.002;4.686;2023-02-12T01:20:54;22.65;;;11.35;;
59336;SDS011;45115;52.002;4.686;2023-02-12T01:23:22;20.52;;;11.38;;
59336;SDS011;45115;52.002;4.686;2023-02-12T01:25:48;22.08;;;12.40;;
59336;SDS011;45115;52.002;4.686;2023-02-12T01:28:15;24.50;;;11.93;;
59336;SDS011;45115;52.002;4.686;2023-02-12T01:30:42;22.35;;;11.93;;
59336;SDS011;45115;52.002;4.686;2023-02-12T01:33:11;22.58;;;12.05;;
59336;SDS011;45115;52.002;4.686;2023-02-12T01:35:37;22.77;;;12.32;;
59336;SDS011;45115;52.002;4.686;2023-02-12T01:38:05;21.27;;;10.82;;
59336;SDS011;45115;52.002;4.686;2023-02-12T01:40:32;20.98;;;11.77;;
59336;SDS011;45115;52.002;4.686;2023-02-12T01:42:59;21.55;;;11.35;;
59336;SDS011;45115;52.002;4.686;2023-02-12T01:45:37;21.58;;;11.90;;
59336;SDS011;45115;52.002;4.686;2023-02-12T01:48:09;18.70;;;10.35;;
59336;SDS011;45115;52.002;4.686;2023-02-12T01:50:36;19.48;;;10.23;;
59336;SDS011;45115;52.002;4.686;2023-02-12T01:53:03;18.88;;;10.30;;
59336;SDS011;45115;52.002;4.686;2023-02-12T01:55:31;21.58;;;10.25;;
59336;SDS011;45115;52.002;4.686;2023-02-12T01:57:57;19.95;;;11.13;;
59336;SDS011;45115;52.002;4.686;2023-02-12T02:00:24;18.77;;;10.82;;
59336;SDS011;45115;52.002;4.686;2023-02-12T02:02:51;19.55;;;10.90;;
59336;SDS011;45115;52.002;4.686;2023-02-12T02:05:22;19.55;;;11.70;;
59336;SDS011;45115;52.002;4.686;2023-02-12T02:07:49;22.52;;;11.65;;
59336;SDS011;45115;52.002;4.686;2023-02-12T02:10:17;20.10;;;11.18;;
59336;SDS011;45115;52.002;4.686;2023-02-12T02:12:45;21.05;;;11.23;;
59336;SDS011;45115;52.002;4.686;2023-02-12T02:15:30;22.42;;;11.90;;
59336;SDS011;45115;52.002;4.686;2023-02-12T02:17:57;20.42;;;11.50;;
59336;SDS011;45115;52.002;4.686;2023-02-12T02:23:09;21.63;;;11.52;;
59336;SDS011;45115;52.002;4.686;2023-02-12T02:28:45;23.15;;;11.52;;
59336;SDS011;45115;52.002;4.686;2023-02-12T02:31:19;22.02;;;11.75;;
59336;SDS011;45115;52.002;4.686;2023-02-12T02:33:49;18.20;;;11.00;;
59336;SDS011;45115;52.002;4.686;2023-02-12T02:36:19;21.70;;;11.52;;
59336;SDS011;45115;52.002;4.686;2023-02-12T02:38:49;20.67;;;11.48;;
59336;SDS011;45115;52.002;4.686;2023-02-12T02:41:18;20.10;;;10.40;;
59336;SDS011;45115;52.002;4.686;2023-02-12T02:43:47;22.02;;;11.18;;
59336;SDS011;45115;52.002;4.686;2023-02-12T02:46:14;23.23;;;11.52;;
59336;SDS011;45115;52.002;4.686;2023-02-12T02:48:45;22.73;;;11.27;;
59336;SDS011;45115;52.002;4.686;2023-02-12T02:51:15;24.33;;;13.52;;
59336;SDS011;45115;52.002;4.686;2023-02-12T02:53:45;19.65;;;11.27;;
59336;SDS011;45115;52.002;4.686;2023-02-12T02:56:13;21.08;;;11.77;;
59336;SDS011;45115;52.002;4.686;2023-02-12T02:58:41;20.92;;;11.35;;
59336;SDS011;45115;52.002;4.686;2023-02-12T03:01:09;20.83;;;11.27;;
59336;SDS011;45115;52.002;4.686;2023-02-12T03:03:39;20.15;;;11.43;;
59336;SDS011;45115;52.002;4.686;2023-02-12T03:06:09;20.73;;;11.50;;
59336;SDS011;45115;52.002;4.686;2023-02-12T03:08:37;18.17;;;10.70;;
59336;SDS011;45115;52.002;4.686;2023-02-12T03:11:06;20.30;;;10.88;;
59336;SDS011;45115;52.002;4.686;2023-02-12T03:13:36;17.52;;;10.65;;
59336;SDS011;45115;52.002;4.686;2023-02-12T03:16:03;19.20;;;10.85;;
59336;SDS011;45115;52.002;4.686;2023-02-12T03:18:34;22.90;;;12.35;;
59336;SDS011;45115;52.002;4.686;2023-02-12T03:21:03;21.55;;;12.23;;
59336;SDS011;45115;52.002;4.686;2023-02-12T03:23:36;21.60;;;11.60;;
59336;SDS011;45115;52.002;4.686;2023-02-12T03:26:04;20.75;;;10.40;;
59336;SDS011;45115;52.002;4.686;2023-02-12T03:28:31;19.42;;;11.20;;
59336;SDS011;45115;52.002;4.686;2023-02-12T03:31:00;20.50;;;11.25;;
59336;SDS011;45115;52.002;4.686;2023-02-12T03:33:28;21.20;;;11.88;;
59336;SDS011;45115;52.002;4.686;2023-02-12T03:35:57;20.02;;;10.95;;
59336;SDS011;45115;52.002;4.686;2023-02-12T03:38:29;18.40;;;11.38;;
59336;SDS011;45115;52.002;4.686;2023-02-12T03:41:01;20.67;;;11.40;;
59336;SDS011;45115;52.002;4.686;2023-02-12T03:43:28;20.52;;;11.57;;
59336;SDS011;45115;52.002;4.686;2023-02-12T03:45:58;19.20;;;10.63;;
59336;SDS011;45115;52.002;4.686;2023-02-12T03:48:27;20.27;;;11.30;;
59336;SDS011;45115;52.002;4.686;2023-02-12T03:50:57;18.75;;;11.27;;
59336;SDS011;45115;52.002;4.686;2023-02-12T03:53:25;22.55;;;11.45;;
59336;SDS011;45115;52.002;4.686;2023-02-12T03:55:53;18.80;;;10.15;;
59336;SDS011;45115;52.002;4.686;2023-02-12T03:58:24;19.02;;;9.73;;
59336;SDS011;45115;52.002;4.686;2023-02-12T04:00:52;21.83;;;11.35;;
59336;SDS011;45115;52.002;4.686;2023-02-12T04:03:18;18.92;;;10.55;;
59336;SDS011;45115;52.002;4.686;2023-02-12T04:05:45;20.70;;;10.90;;
59336;SDS011;45115;52.002;4.686;2023-02-12T04:08:11;20.00;;;11.85;;
59336;SDS011;45115;52.002;4.686;2023-02-12T04:10:41;21.73;;;10.93;;
59336;SDS011;45115;52.002;4.686;2023-02-12T04:13:14;22.58;;;11.40;;
59336;SDS011;45115;52.002;4.686;2023-02-12T04:15:48;19.50;;;11.27;;
59336;SDS011;45115;52.002;4.686;2023-02-12T04:18:18;21.73;;;11.65;;
59336;SDS011;45115;52.002;4.686;2023-02-12T04:20:52;20.10;;;10.82;;
59336;SDS011;45115;52.002;4.686;2023-02-12T04:23:27;19.02;;;10.40;;
59336;SDS011;45115;52.002;4.686;2023-02-12T04:26:00;20.70;;;11.68;;
59336;SDS011;45115;52.002;4.686;2023-02-12T04:28:31;22.05;;;11.27;;
59336;SDS011;45115;52.002;4.686;2023-02-12T04:31:02;19.73;;;10.90;;
59336;SDS011;45115;52.002;4.686;2023-02-12T04:33:31;20.90;;;10.85;;
59336;SDS011;45115;52.002;4.686;2023-02-12T04:35:59;18.98;;;10.70;;
59336;SDS011;45115;52.002;4.686;2023-02-12T04:38:27;21.05;;;10.77;;
59336;SDS011;45115;52.002;4.686;2023-02-12T04:40:55;18.15;;;10.27;;
59336;SDS011;45115;52.002;4.686;2023-02-12T04:43:26;21.20;;;11.30;;
59336;SDS011;45115;52.002;4.686;2023-02-12T04:45:53;19.77;;;10.88;;
59336;SDS011;45115;52.002;4.686;2023-02-12T04:48:21;23.52;;;11.43;;
59336;SDS011;45115;52.002;4.686;2023-02-12T04:50:48;23.70;;;11.88;;
59336;SDS011;45115;52.002;4.686;2023-02-12T04:53:14;19.38;;;10.40;;
59336;SDS011;45115;52.002;4.686;2023-02-12T04:55:40;19.25;;;10.70;;
59336;SDS011;45115;52.002;4.686;2023-02-12T04:58:07;22.30;;;11.13;;
59336;SDS011;45115;52.002;4.686;2023-02-12T05:00:33;21.52;;;11.10;;
59336;SDS011;45115;52.002;4.686;2023-02-12T05:03:00;20.63;;;10.68;;
59336;SDS011;45115;52.002;4.686;2023-02-12T05:05:28;20.15;;;10.25;;
59336;SDS011;45115;52.002;4.686;2023-02-12T05:07:54;22.80;;;11.80;;
59336;SDS011;45115;52.002;4.686;2023-02-12T05:10:21;18.63;;;9.63;;
59336;SDS011;45115;52.002;4.686;2023-02-12T05:12:47;21.88;;;10.93;;
59336;SDS011;45115;52.002;4.686;2023-02-12T05:15:16;19.77;;;10.48;;
59336;SDS011;45115;52.002;4.686;2023-02-12T05:17:43;18.65;;;11.00;;
59336;SDS011;45115;52.002;4.686;2023-02-12T05:20:10;19.80;;;11.05;;
59336;SDS011;45115;52.002;4.686;2023-02-12T05:22:38;20.52;;;10.45;;
59336;SDS011;45115;52.002;4.686;2023-02-12T05:25:04;21.13;;;10.93;;
59336;SDS011;45115;52.002;4.686;2023-02-12T05:27:31;20.50;;;10.98;;
59336;SDS011;45115;52.002;4.686;2023-02-12T05:29:58;21.15;;;10.90;;
59336;SDS011;45115;52.002;4.686;2023-02-12T05:32:24;19.40;;;10.10;;
59336;SDS011;45115;52.002;4.686;2023-02-12T05:34:50;21.75;;;10.73;;
59336;SDS011;45115;52.002;4.686;2023-02-12T05:37:17;21.25;;;10.43;;
59336;SDS011;45115;52.002;4.686;2023-02-12T05:39:45;22.05;;;10.02;;
59336;SDS011;45115;52.002;4.686;2023-02-12T05:42:13;17.20;;;9.68;;
59336;SDS011;45115;52.002;4.686;2023-02-12T05:44:40;20.40;;;10.45;;
59336;SDS011;45115;52.002;4.686;2023-02-12T05:47:06;21.33;;;11.10;;
59336;SDS011;45115;52.002;4.686;2023-02-12T05:49:33;21.45;;;10.88;;
59336;SDS011;45115;52.002;4.686;2023-02-12T05:51:59;20.52;;;10.38;;
59336;SDS011;45115;52.002;4.686;2023-02-12T05:54:28;20.48;;;10.50;;
59336;SDS011;45115;52.002;4.686;2023-02-12T05:56:56;18.58;;;9.55;;
59336;SDS011;45115;52.002;4.686;2023-02-12T05:59:23;19.05;;;10.20;;
59336;SDS011;45115;52.002;4.686;2023-02-12T06:01:50;18.30;;;9.43;;
59336;SDS011;45115;52.002;4.686;2023-02-12T06:04:17;18.40;;;9.70;;
59336;SDS011;45115;52.002;4.686;2023-02-12T06:06:44;19.17;;;10.15;;
59336;SDS011;45115;52.002;4.686;2023-02-12T06:09:11;19.25;;;10.43;;
59336;SDS011;45115;52.002;4.686;2023-02-12T06:11:38;20.30;;;10.15;;
59336;SDS011;45115;52.002;4.686;2023-02-12T06:14:07;18.08;;;9.38;;
59336;SDS011;45115;52.002;4.686;2023-02-12T06:16:33;20.25;;;10.07;;
59336;SDS011;45115;52.002;4.686;2023-02-12T06:19:00;19.35;;;10.13;;
59336;SDS011;45115;52.002;4.686;2023-02-12T06:21:27;19.63;;;10.60;;
59336;SDS011;45115;52.002;4.686;2023-02-12T06:23:54;19.88;;;11.07;;
59336;SDS011;45115;52.002;4.686;2023-02-12T06:26:21;18.95;;;10.48;;
59336;SDS011;45115;52.002;4.686;2023-02-12T06:28:48;19.60;;;10.63;;
59336;SDS011;45115;52.002;4.686;2023-02-12T06:31:20;21.70;;;10.75;;
59336;SDS011;45115;52.002;4.686;2023-02-12T06:33:47;19.02;;;10.85;;
59336;SDS011;45115;52.002;4.686;2023-02-12T06:36:14;21.75;;;11.65;;
59336;SDS011;45115;52.002;4.686;2023-02-12T06:38:41;21.40;;;10.95;;
59336;SDS011;45115;52.002;4.686;2023-02-12T06:41:07;19.17;;;10.82;;
59336;SDS011;45115;52.002;4.686;2023-02-12T06:43:34;25.38;;;12.13;;
59336;SDS011;45115;52.002;4.686;2023-02-12T06:46:01;21.35;;;10.55;;
59336;SDS011;45115;52.002;4.686;2023-02-12T06:48:29;21.25;;;11.70;;
59336;SDS011;45115;52.002;4.686;2023-02-12T06:50:56;21.42;;;11.27;;
59336;SDS011;45115;52.002;4.686;2023-02-12T06:53:28;20.02;;;10.50;;
59336;SDS011;45115;52.002;4.686;2023-02-12T06:55:55;23.00;;;11.55;;
59336;SDS011;45115;52.002;4.686;2023-02-12T06:58:21;20.75;;;10.55;;
59336;SDS011;45115;52.002;4.686;2023-02-12T07:00:48;22.00;;;11.90;;
59336;SDS011;45115;52.002;4.686;2023-02-12T07:03:14;20.35;;;10.77;;
59336;SDS011;45115;52.002;4.686;2023-02-12T07:05:42;20.88;;;11.15;;
59336;SDS011;45115;52.002;4.686;2023-02-12T07:08:08;19.05;;;10.00;;
59336;SDS011;45115;52.002;4.686;2023-02-12T07:10:35;19.02;;;10.82;;
59336;SDS011;45115;52.002;4.686;2023-02-12T07:13:03;21.23;;;11.35;;
59336;SDS011;45115;52.002;4.686;2023-02-12T07:15:30;22.23;;;10.43;;
59336;SDS011;45115;52.002;4.686;2023-02-12T07:17:56;19.13;;;10.77;;
59336;SDS011;45115;52.002;4.686;2023-02-12T07:20:23;19.90;;;9.48;;
59336;SDS011;45115;52.002;4.686;2023-02-12T07:22:51;17.17;;;9.75;;
59336;SDS011;45115;52.002;4.686;2023-02-12T07:25:17;20.88;;;10.70;;
59336;SDS011;45115;52.002;4.686;2023-02-12T07:27:43;19.30;;;10.25;;
59336;SDS011;45115;52.002;4.686;2023-02-12T07:30:10;19.08;;;10.00;;
59336;SDS011;45115;52.002;4.686;2023-02-12T07:32:37;18.23;;;10.02;;
59336;SDS011;45115;52.002;4.686;2023-02-12T07:35:03;20.58;;;11.35;;
59336;SDS011;45115;52.002;4.686;2023-02-12T07:37:30;22.27;;;11.13;;
59336;SDS011;45115;52.002;4.686;2023-02-12T07:39:57;20.20;;;10.07;;
59336;SDS011;45115;52.002;4.686;2023-02-12T07:42:24;19.13;;;10.52;;
59336;SDS011;45115;52.002;4.686;2023-02-12T07:44:51;21.25;;;11.48;;
59336;SDS011;45115;52.002;4.686;2023-02-12T07:47:17;21.15;;;11.02;;
59336;SDS011;45115;52.002;4.686;2023-02-12T07:49:44;19.45;;;9.95;;
59336;SDS011;45115;52.002;4.686;2023-02-12T07:52:10;18.08;;;10.05;;
59336;SDS011;45115;52.002;4.686;2023-02-12T07:54:37;19.88;;;10.07;;
59336;SDS011;45115;52.002;4.686;2023-02-12T07:57:04;20.10;;;10.95;;
59336;SDS011;45115;52.002;4.686;2023-02-12T07:59:31;21.58;;;11.15;;
59336;SDS011;45115;52.002;4.686;2023-02-12T08:01:57;19.60;;;10.32;;
59336;SDS011;45115;52.002;4.686;2023-02-12T08:04:25;18.85;;;10.43;;
59336;SDS011;45115;52.002;4.686;2023-02-12T08:06:52;18.48;;;10.35;;
59336;SDS011;45115;52.002;4.686;2023-02-12T08:09:20;19.02;;;10.40;;
59336;SDS011;45115;52.002;4.686;2023-02-12T08:11:46;19.15;;;9.98;;
59336;SDS011;45115;52.002;4.686;2023-02-12T08:14:15;20.20;;;10.65;;
59336;SDS011;45115;52.002;4.686;2023-02-12T08:16:42;20.25;;;10.75;;
59336;SDS011;45115;52.002;4.686;2023-02-12T08:19:09;21.85;;;10.90;;
59336;SDS011;45115;52.002;4.686;2023-02-12T08:21:35;20.88;;;11.32;;
59336;SDS011;45115;52.002;4.686;2023-02-12T08:24:02;19.67;;;11.32;;
59336;SDS011;45115;52.002;4.686;2023-02-12T08:26:29;18.08;;;10.77;;
59336;SDS011;45115;52.002;4.686;2023-02-12T08:28:56;19.38;;;9.93;;
59336;SDS011;45115;52.002;4.686;2023-02-12T08:31:26;18.45;;;10.13;;
59336;SDS011;45115;52.002;4.686;2023-02-12T08:33:53;17.48;;;9.43;;
59336;SDS011;45115;52.002;4.686;2023-02-12T08:36:20;19.50;;;10.32;;
59336;SDS011;45115;52.002;4.686;2023-02-12T08:38:46;18.08;;;10.20;;
59336;SDS011;45115;52.002;4.686;2023-02-12T08:41:14;18.17;;;9.63;;
59336;SDS011;45115;52.002;4.686;2023-02-12T08:43:41;17.35;;;9.65;;
59336;SDS011;45115;52.002;4.686;2023-02-12T08:46:08;17.70;;;9.38;;
59336;SDS011;45115;52.002;4.686;2023-02-12T08:48:36;17.95;;;9.85;;
59336;SDS011;45115;52.002;4.686;2023-02-12T08:51:04;19.23;;;8.95;;
59336;SDS011;45115;52.002;4.686;2023-02-12T08:53:31;18.55;;;9.95;;
59336;SDS011;45115;52.002;4.686;2023-02-12T08:55:58;18.50;;;9.52;;
59336;SDS011;45115;52.002;4.686;2023-02-12T08:58:24;16.52;;;8.88;;
59336;SDS011;45115;52.002;4.686;2023-02-12T09:00:51;19.48;;;9.75;;
59336;SDS011;45115;52.002;4.686;2023-02-12T09:03:17;18.08;;;9.52;;
59336;SDS011;45115;52.002;4.686;2023-02-12T09:05:45;18.20;;;9.25;;
59336;SDS011;45115;52.002;4.686;2023-02-12T09:08:11;18.40;;;9.40;;
59336;SDS011;45115;52.002;4.686;2023-02-12T09:10:38;16.23;;;8.32;;
59336;SDS011;45115;52.002;4.686;2023-02-12T09:13:04;18.45;;;8.70;;
59336;SDS011;45115;52.002;4.686;2023-02-12T09:15:34;17.65;;;9.68;;
59336;SDS011;45115;52.002;4.686;2023-02-12T09:18:01;17.33;;;8.57;;
59336;SDS011;45115;52.002;4.686;2023-02-12T09:20:28;16.67;;;9.77;;
59336;SDS011;45115;52.002;4.686;2023-02-12T09:22:56;17.05;;;9.68;;
59336;SDS011;45115;52.002;4.686;2023-02-12T09:25:23;16.90;;;8.70;;
59336;SDS011;45115;52.002;4.686;2023-02-12T09:27:50;18.08;;;9.35;;
59336;SDS011;45115;52.002;4.686;2023-02-12T09:30:16;16.40;;;8.75;;
59336;SDS011;45115;52.002;4.686;2023-02-12T09:32:43;16.15;;;9.38;;
59336;SDS011;45115;52.002;4.686;2023-02-12T09:35:09;19.73;;;9.55;;
59336;SDS011;45115;52.002;4.686;2023-02-12T09:37:37;16.67;;;9.18;;
59336;SDS011;45115;52.002;4.686;2023-02-12T09:40:06;17.02;;;9.20;;
59336;SDS011;45115;52.002;4.686;2023-02-12T09:42:36;16.48;;;8.63;;
59336;SDS011;45115;52.002;4.686;2023-02-12T09:45:09;18.25;;;9.18;;
59336;SDS011;45115;52.002;4.686;2023-02-12T09:47:39;16.52;;;9.80;;
59336;SDS011;45115;52.002;4.686;2023-02-12T09:50:15;18.10;;;9.75;;
59336;SDS011;45115;52.002;4.686;2023-02-12T09:52:43;18.48;;;9.07;;
59336;SDS011;45115;52.002;4.686;2023-02-12T09:55:12;17.88;;;9.55;;
59336;SDS011;45115;52.002;4.686;2023-02-12T09:57:39;16.63;;;9.73;;
59336;SDS011;45115;52.002;4.686;2023-02-12T10:00:07;16.67;;;9.35;;
59336;SDS011;45115;52.002;4.686;2023-02-12T10:02:34;18.63;;;9.65;;
59336;SDS011;45115;52.002;4.686;2023-02-12T10:05:02;17.40;;;9.60;;
59336;SDS011;45115;52.002;4.686;2023-02-12T10:07:32;17.90;;;10.15;;
59336;SDS011;45115;52.002;4.686;2023-02-12T10:10:09;18.55;;;9.75;;
59336;SDS011;45115;52.002;4.686;2023-02-12T10:12:44;19.33;;;10.10;;
59336;SDS011;45115;52.002;4.686;2023-02-12T10:15:14;18.05;;;10.50;;
59336;SDS011;45115;52.002;4.686;2023-02-12T10:17:42;18.48;;;9.57;;
59336;SDS011;45115;52.002;4.686;2023-02-12T10:23:10;19.33;;;11.50;;
59336;SDS011;45115;52.002;4.686;2023-02-12T10:25:43;19.08;;;10.77;;
59336;SDS011;45115;52.002;4.686;2023-02-12T10:28:13;17.60;;;10.00;;
59336;SDS011;45115;52.002;4.686;2023-02-12T10:30:42;19.60;;;11.43;;
59336;SDS011;45115;52.002;4.686;2023-02-12T10:33:11;19.50;;;10.77;;
59336;SDS011;45115;52.002;4.686;2023-02-12T10:35:39;17.38;;;10.38;;
59336;SDS011;45115;52.002;4.686;2023-02-12T10:38:12;19.30;;;11.07;;
59336;SDS011;45115;52.002;4.686;2023-02-12T10:40:39;18.90;;;11.13;;
59336;SDS011;45115;52.002;4.686;2023-02-12T10:43:09;19.48;;;11.18;;
59336;SDS011;45115;52.002;4.686;2023-02-12T10:45:39;18.88;;;10.90;;
59336;SDS011;45115;52.002;4.686;2023-02-12T10:48:07;19.45;;;11.75;;
59336;SDS011;45115;52.002;4.686;2023-02-12T10:50:47;19.15;;;10.75;;
59336;SDS011;45115;52.002;4.686;2023-02-12T10:53:17;20.42;;;11.75;;
59336;SDS011;45115;52.002;4.686;2023-02-12T10:55:43;20.70;;;11.50;;
59336;SDS011;45115;52.002;4.686;2023-02-12T10:58:16;20.60;;;11.80;;
59336;SDS011;45115;52.002;4.686;2023-02-12T11:00:45;19.35;;;11.20;;
59336;SDS011;45115;52.002;4.686;2023-02-12T11:03:19;20.23;;;11.40;;
59336;SDS011;45115;52.002;4.686;2023-02-12T11:05:46;19.10;;;11.05;;
59336;SDS011;45115;52.002;4.686;2023-02-12T11:08:25;21.75;;;11.88;;
59336;SDS011;45115;52.002;4.686;2023-02-12T11:10:53;18.37;;;11.13;;
59336;SDS011;45115;52.002;4.686;2023-02-12T11:13:21;18.70;;;10.32;;
59336;SDS011;45115;52.002;4.686;2023-02-12T11:15:49;20.27;;;10.70;;
59336;SDS011;45115;52.002;4.686;2023-02-12T11:18:19;20.90;;;10.85;;
59336;SDS011;45115;52.002;4.686;2023-02-12T11:20:48;19.90;;;10.20;;
59336;SDS011;45115;52.002;4.686;2023-02-12T11:23:22;20.83;;;11.13;;
59336;SDS011;45115;52.002;4.686;2023-02-12T11:25:53;17.85;;;9.70;;
59336;SDS011;45115;52.002;4.686;2023-02-12T11:30:57;17.42;;;9.40;;
59336;SDS011;45115;52.002;4.686;2023-02-12T11:33:26;18.65;;;10.98;;
59336;SDS011;45115;52.002;4.686;2023-02-12T11:35:53;17.70;;;9.70;;
59336;SDS011;45115;52.002;4.686;2023-02-12T11:38:25;18.20;;;9.95;;
59336;SDS011;45115;52.002;4.686;2023-02-12T11:40:53;18.70;;;10.07;;
59336;SDS011;45115;52.002;4.686;2023-02-12T11:43:21;18.40;;;10.32;;
59336;SDS011;45115;52.002;4.686;2023-02-12T11:45:49;20.83;;;10.02;;
59336;SDS011;45115;52.002;4.686;2023-02-12T11:48:20;19.27;;;9.70;;
59336;SDS011;45115;52.002;4.686;2023-02-12T11:50:48;18.23;;;9.93;;
59336;SDS011;45115;52.002;4.686;2023-02-12T11:53:18;19.27;;;9.98;;
59336;SDS011;45115;52.002;4.686;2023-02-12T11:55:51;20.10;;;11.23;;
59336;SDS011;45115;52.002;4.686;2023-02-12T11:58:19;20.40;;;11.30;;
59336;SDS011;45115;52.002;4.686;2023-02-12T12:00:48;20.42;;;11.13;;
59336;SDS011;45115;52.002;4.686;2023-02-12T12:03:17;20.25;;;11.05;;
59336;SDS011;45115;52.002;4.686;2023-02-12T12:05:48;19.90;;;10.80;;
59336;SDS011;45115;52.002;4.686;2023-02-12T12:08:18;21.37;;;11.13;;
59336;SDS011;45115;52.002;4.686;2023-02-12T12:10:48;21.70;;;11.32;;
59336;SDS011;45115;52.002;4.686;2023-02-12T12:13:16;24.02;;;14.05;;
59336;SDS011;45115;52.002;4.686;2023-02-12T12:15:47;23.77;;;12.20;;
59336;SDS011;45115;52.002;4.686;2023-02-12T12:18:35;23.80;;;12.82;;
59336;SDS011;45115;52.002;4.686;2023-02-12T12:21:24;20.23;;;11.30;;
59336;SDS011;45115;52.002;4.686;2023-02-12T12:23:52;21.17;;;10.95;;
59336;SDS011;45115;52.002;4.686;2023-02-12T12:26:21;20.63;;;11.23;;
59336;SDS011;45115;52.002;4.686;2023-02-12T12:28:50;21.17;;;11.27;;
59336;SDS011;45115;52.002;4.686;2023-02-12T12:31:17;19.35;;;10.13;;
59336;SDS011;45115;52.002;4.686;2023-02-12T12:33:46;20.60;;;10.73;;
59336;SDS011;45115;52.002;4.686;2023-02-12T12:36:27;20.60;;;10.65;;
59336;SDS011;45115;52.002;4.686;2023-02-12T12:38:58;19.42;;;11.20;;
59336;SDS011;45115;52.002;4.686;2023-02-12T12:41:30;20.83;;;10.07;;
59336;SDS011;45115;52.002;4.686;2023-02-12T12:44:03;17.90;;;9.48;;
59336;SDS011;45115;52.002;4.686;2023-02-12T12:46:33;18.02;;;10.10;;
59336;SDS011;45115;52.002;4.686;2023-02-12T12:51:59;20.88;;;10.75;;
59336;SDS011;45115;52.002;4.686;2023-02-12T12:54:39;20.92;;;10.52;;
59336;SDS011;45115;52.002;4.686;2023-02-12T12:57:09;17.88;;;9.07;;
59336;SDS011;45115;52.002;4.686;2023-02-12T12:59:53;18.23;;;8.40;;
59336;SDS011;45115;52.002;4.686;2023-02-12T13:07:53;18.33;;;8.68;;
59336;SDS011;45115;52.002;4.686;2023-02-12T13:10:26;16.40;;;8.85;;
59336;SDS011;45115;52.002;4.686;2023-02-12T13:13:03;15.00;;;7.38;;
59336;SDS011;45115;52.002;4.686;2023-02-12T13:15:32;15.55;;;7.38;;
59336;SDS011;45115;52.002;4.686;2023-02-12T13:18:02;15.30;;;7.35;;
59336;SDS011;45115;52.002;4.686;2023-02-12T13:20:33;14.35;;;7.20;;
59336;SDS011;45115;52.002;4.686;2023-02-12T13:23:03;12.50;;;6.18;;
59336;SDS011;45115;52.002;4.686;2023-02-12T13:25:33;12.80;;;6.72;;
59336;SDS011;45115;52.002;4.686;2023-02-12T13:28:04;13.00;;;6.85;;
59336;SDS011;45115;52.002;4.686;2023-02-12T13:30:32;15.48;;;7.53;;
59336;SDS011;45115;52.002;4.686;2023-02-12T13:33:05;15.43;;;7.18;;
59336;SDS011;45115;52.002;4.686;2023-02-12T13:35:32;14.57;;;6.40;;
59336;SDS011;45115;52.002;4.686;2023-02-12T13:38:00;15.63;;;7.63;;
59336;SDS011;45115;52.002;4.686;2023-02-12T13:40:29;15.52;;;7.13;;
59336;SDS011;45115;52.002;4.686;2023-02-12T13:42:57;15.93;;;7.35;;
59336;SDS011;45115;52.002;4.686;2023-02-12T13:45:28;13.93;;;7.35;;
59336;SDS011;45115;52.002;4.686;2023-02-12T13:47:59;14.07;;;6.68;;
59336;SDS011;45115;52.002;4.686;2023-02-12T13:50:33;16.08;;;7.28;;
59336;SDS011;45115;52.002;4.686;2023-02-12T13:53:01;15.30;;;7.57;;
59336;SDS011;45115;52.002;4.686;2023-02-12T13:55:34;14.07;;;7.57;;
59336;SDS011;45115;52.002;4.686;2023-02-12T14:00:58;16.05;;;8.50;;
59336;SDS011;45115;52.002;4.686;2023-02-12T14:03:25;17.05;;;8.30;;
59336;SDS011;45115;52.002;4.686;2023-02-12T14:06:06;17.02;;;8.00;;
59336;SDS011;45115;52.002;4.686;2023-02-12T14:08:34;16.70;;;8.38;;
59336;SDS011;45115;52.002;4.686;2023-02-12T14:11:03;16.73;;;9.70;;
59336;SDS011;45115;52.002;4.686;2023-02-12T14:13:30;19.90;;;9.73;;
59336;SDS011;45115;52.002;4.686;2023-02-12T14:15:59;20.77;;;9.95;;
59336;SDS011;45115;52.002;4.686;2023-02-12T14:18:43;18.08;;;9.25;;
59336;SDS011;45115;52.002;4.686;2023-02-12T14:26:55;20.02;;;9.73;;
59336;SDS011;45115;52.002;4.686;2023-02-12T14:29:21;21.20;;;9.25;;
59336;SDS011;45115;52.002;4.686;2023-02-12T14:31:49;19.17;;;9.23;;
59336;SDS011;45115;52.002;4.686;2023-02-12T14:37:17;18.73;;;9.40;;
59336;SDS011;45115;52.002;4.686;2023-02-12T14:39:43;20.65;;;9.10;;
59336;SDS011;45115;52.002;4.686;2023-02-12T14:44:56;19.17;;;8.88;;
59336;SDS011;45115;52.002;4.686;2023-02-12T14:50:12;20.10;;;9.77;;
59336;SDS011;45115;52.002;4.686;2023-02-12T14:55:07;20.20;;;10.00;;
59336;SDS011;45115;52.002;4.686;2023-02-12T14:57:43;22.27;;;10.07;;
59336;SDS011;45115;52.002;4.686;2023-02-12T15:00:22;28.05;;;12.27;;
59336;SDS011;45115;52.002;4.686;2023-02-12T15:05:18;21.35;;;10.40;;
59336;SDS011;45115;52.002;4.686;2023-02-12T15:07:47;23.02;;;10.20;;
59336;SDS011;45115;52.002;4.686;2023-02-12T15:10:14;24.30;;;11.85;;
59336;SDS011;45115;52.002;4.686;2023-02-12T15:12:43;24.00;;;10.55;;
59336;SDS011;45115;52.002;4.686;2023-02-12T15:15:12;25.77;;;11.40;;
59336;SDS011;45115;52.002;4.686;2023-02-12T15:17:45;25.95;;;11.05;;